sensor_id;sensor_type;location;lat;lon;timestamp;P1;durP1;ratioP1;P2;durP2;ratioP2
9138;SDS011;4604;48.616;9.548;2023-09-19T00:02:16;0.45;;;0.45;;
9138;SDS011;4604;48.616;9.548;2023-09-19T00:04:43;1.42;;;0.75;;
9138;SDS011;4604;48.616;9.548;2023-09-19T00:07:10;1.60;;;0.90;;
9138;SDS011;4604;48.616;9.548;2023-09-19T00:09:36;1.73;;;0.90;;
9138;SDS011;4604;48.616;9.548;2023-09-19T00:12:04;0.57;;;0.57;;
9138;SDS011;4604;48.616;9.548;2023-09-19T00:14:31;2.72;;;0.65;;
9138;SDS011;4604;48.616;9.548;2023-09-19T00:17:02;0.60;;;0.55;;
9138;SDS011;4604;48.616;9.548;2023-09-19T00:19:33;0.82;;;0.73;;
9138;SDS011;4604;48.616;9.548;2023-09-19T00:21:59;0.82;;;0.70;;
9138;SDS011;4604;48.616;9.548;2023-09-19T00:24:27;1.48;;;0.82;;
9138;SDS011;4604;48.616;9.548;2023-09-19T00:26:54;1.15;;;1.00;;
9138;SDS011;4604;48.616;9.548;2023-09-19T00:29:20;1.08;;;0.93;;
9138;SDS011;4604;48.616;9.548;2023-09-19T00:31:48;1.65;;;0.90;;
9138;SDS011;4604;48.616;9.548;2023-09-19T00:34:16;0.88;;;0.65;;
9138;SDS011;4604;48.616;9.548;2023-09-19T00:36:43;0.82;;;0.63;;
9138;SDS011;4604;48.616;9.548;2023-09-19T00:39:10;0.75;;;0.70;;
9138;SDS011;4604;48.616;9.548;2023-09-19T00:41:36;1.92;;;0.70;;
9138;SDS011;4604;48.616;9.548;2023-09-19T00:44:03;0.88;;;0.73;;
9138;SDS011;4604;48.616;9.548;2023-09-19T00:46:31;0.68;;;0.65;;
9138;SDS011;4604;48.616;9.548;2023-09-19T00:48:58;0.65;;;0.65;;
9138;SDS011;4604;48.616;9.548;2023-09-19T00:51:26;1.90;;;0.60;;
9138;SDS011;4604;48.616;9.548;2023-09-19T00:53:54;1.75;;;0.60;;
9138;SDS011;4604;48.616;9.548;2023-09-19T00:56:21;1.30;;;0.60;;
9138;SDS011;4604;48.616;9.548;2023-09-19T00:58:48;0.73;;;0.70;;
9138;SDS011;4604;48.616;9.548;2023-09-19T01:01:15;0.75;;;0.57;;
9138;SDS011;4604;48.616;9.548;2023-09-19T01:03:42;2.33;;;0.60;;
9138;SDS011;4604;48.616;9.548;2023-09-19T01:06:11;0.80;;;0.70;;
9138;SDS011;4604;48.616;9.548;2023-09-19T01:08:39;0.70;;;0.70;;
9138;SDS011;4604;48.616;9.548;2023-09-19T01:11:08;0.95;;;0.80;;
9138;SDS011;4604;48.616;9.548;2023-09-19T01:13:47;0.68;;;0.60;;
9138;SDS011;4604;48.616;9.548;2023-09-19T01:16:32;0.93;;;0.85;;
9138;SDS011;4604;48.616;9.548;2023-09-19T01:19:07;0.80;;;0.80;;
9138;SDS011;4604;48.616;9.548;2023-09-19T01:21:53;0.93;;;0.80;;
9138;SDS011;4604;48.616;9.548;2023-09-19T01:24:47;1.20;;;0.90;;
9138;SDS011;4604;48.616;9.548;2023-09-19T01:27:35;2.88;;;0.90;;
9138;SDS011;4604;48.616;9.548;2023-09-19T01:30:21;0.60;;;0.60;;
9138;SDS011;4604;48.616;9.548;2023-09-19T01:32:54;0.63;;;0.60;;
9138;SDS011;4604;48.616;9.548;2023-09-19T01:35:22;1.45;;;0.80;;
9138;SDS011;4604;48.616;9.548;2023-09-19T01:37:49;1.17;;;1.10;;
9138;SDS011;4604;48.616;9.548;2023-09-19T01:40:16;1.05;;;0.60;;
9138;SDS011;4604;48.616;9.548;2023-09-19T01:42:48;0.80;;;0.80;;
9138;SDS011;4604;48.616;9.548;2023-09-19T01:45:24;0.82;;;0.77;;
9138;SDS011;4604;48.616;9.548;2023-09-19T01:48:02;0.63;;;0.63;;
9138;SDS011;4604;48.616;9.548;2023-09-19T01:50:41;1.05;;;0.93;;
9138;SDS011;4604;48.616;9.548;2023-09-19T01:53:15;1.17;;;1.08;;
9138;SDS011;4604;48.616;9.548;2023-09-19T01:55:55;0.82;;;0.82;;
9138;SDS011;4604;48.616;9.548;2023-09-19T01:58:26;1.20;;;1.10;;
9138;SDS011;4604;48.616;9.548;2023-09-19T02:01:00;1.00;;;0.90;;
9138;SDS011;4604;48.616;9.548;2023-09-19T02:03:28;1.75;;;0.90;;
9138;SDS011;4604;48.616;9.548;2023-09-19T02:05:57;1.70;;;1.10;;
9138;SDS011;4604;48.616;9.548;2023-09-19T02:08:23;1.10;;;0.88;;
9138;SDS011;4604;48.616;9.548;2023-09-19T02:10:50;0.70;;;0.70;;
9138;SDS011;4604;48.616;9.548;2023-09-19T02:13:18;1.25;;;1.10;;
9138;SDS011;4604;48.616;9.548;2023-09-19T02:15:46;1.27;;;0.90;;
9138;SDS011;4604;48.616;9.548;2023-09-19T02:18:14;1.13;;;0.65;;
9138;SDS011;4604;48.616;9.548;2023-09-19T02:20:40;2.08;;;1.23;;
9138;SDS011;4604;48.616;9.548;2023-09-19T02:23:07;1.15;;;1.05;;
9138;SDS011;4604;48.616;9.548;2023-09-19T02:25:34;1.60;;;0.90;;
9138;SDS011;4604;48.616;9.548;2023-09-19T02:28:03;3.63;;;1.20;;
9138;SDS011;4604;48.616;9.548;2023-09-19T02:30:30;1.00;;;0.90;;
9138;SDS011;4604;48.616;9.548;2023-09-19T02:32:57;1.77;;;0.98;;
9138;SDS011;4604;48.616;9.548;2023-09-19T02:35:27;2.03;;;1.05;;
9138;SDS011;4604;48.616;9.548;2023-09-19T02:37:58;1.48;;;1.10;;
9138;SDS011;4604;48.616;9.548;2023-09-19T02:40:24;1.33;;;1.13;;
9138;SDS011;4604;48.616;9.548;2023-09-19T02:42:53;1.02;;;1.02;;
9138;SDS011;4604;48.616;9.548;2023-09-19T02:45:21;4.10;;;1.17;;
9138;SDS011;4604;48.616;9.548;2023-09-19T02:47:48;1.13;;;0.90;;
9138;SDS011;4604;48.616;9.548;2023-09-19T02:50:15;1.33;;;1.10;;
9138;SDS011;4604;48.616;9.548;2023-09-19T02:52:45;1.13;;;0.70;;
9138;SDS011;4604;48.616;9.548;2023-09-19T02:55:14;1.27;;;1.17;;
9138;SDS011;4604;48.616;9.548;2023-09-19T02:57:45;1.30;;;1.15;;
9138;SDS011;4604;48.616;9.548;2023-09-19T03:00:12;2.13;;;1.55;;
9138;SDS011;4604;48.616;9.548;2023-09-19T03:02:40;6.43;;;1.17;;
9138;SDS011;4604;48.616;9.548;2023-09-19T03:05:07;5.65;;;0.93;;
9138;SDS011;4604;48.616;9.548;2023-09-19T03:07:36;1.83;;;1.38;;
9138;SDS011;4604;48.616;9.548;2023-09-19T03:10:05;1.38;;;1.17;;
9138;SDS011;4604;48.616;9.548;2023-09-19T03:12:32;3.33;;;1.33;;
9138;SDS011;4604;48.616;9.548;2023-09-19T03:15:00;4.28;;;1.10;;
9138;SDS011;4604;48.616;9.548;2023-09-19T03:17:26;1.08;;;1.00;;
9138;SDS011;4604;48.616;9.548;2023-09-19T03:19:53;2.92;;;1.30;;
9138;SDS011;4604;48.616;9.548;2023-09-19T03:22:20;1.50;;;1.20;;
9138;SDS011;4604;48.616;9.548;2023-09-19T03:24:47;2.40;;;1.10;;
9138;SDS011;4604;48.616;9.548;2023-09-19T03:27:15;1.45;;;1.20;;
9138;SDS011;4604;48.616;9.548;2023-09-19T03:29:42;1.25;;;1.10;;
9138;SDS011;4604;48.616;9.548;2023-09-19T03:32:08;0.88;;;0.88;;
9138;SDS011;4604;48.616;9.548;2023-09-19T03:34:36;2.45;;;1.35;;
9138;SDS011;4604;48.616;9.548;2023-09-19T03:37:03;1.25;;;1.15;;
9138;SDS011;4604;48.616;9.548;2023-09-19T03:39:30;3.35;;;1.50;;
9138;SDS011;4604;48.616;9.548;2023-09-19T03:41:57;1.38;;;1.08;;
9138;SDS011;4604;48.616;9.548;2023-09-19T03:44:25;1.33;;;0.93;;
9138;SDS011;4604;48.616;9.548;2023-09-19T03:46:51;1.45;;;1.10;;
9138;SDS011;4604;48.616;9.548;2023-09-19T03:49:18;2.17;;;1.33;;
9138;SDS011;4604;48.616;9.548;2023-09-19T03:51:45;3.25;;;1.35;;
9138;SDS011;4604;48.616;9.548;2023-09-19T03:54:11;1.20;;;1.10;;
9138;SDS011;4604;48.616;9.548;2023-09-19T03:56:38;1.20;;;0.98;;
9138;SDS011;4604;48.616;9.548;2023-09-19T03:59:05;5.32;;;1.27;;
9138;SDS011;4604;48.616;9.548;2023-09-19T04:01:35;1.15;;;1.02;;
9138;SDS011;4604;48.616;9.548;2023-09-19T04:04:02;3.15;;;1.27;;
9138;SDS011;4604;48.616;9.548;2023-09-19T04:06:33;1.40;;;1.30;;
9138;SDS011;4604;48.616;9.548;2023-09-19T04:09:00;2.33;;;1.20;;
9138;SDS011;4604;48.616;9.548;2023-09-19T04:11:26;1.70;;;1.20;;
9138;SDS011;4604;48.616;9.548;2023-09-19T04:13:53;1.92;;;1.17;;
9138;SDS011;4604;48.616;9.548;2023-09-19T04:16:20;2.30;;;1.20;;
9138;SDS011;4604;48.616;9.548;2023-09-19T04:18:48;1.55;;;1.05;;
9138;SDS011;4604;48.616;9.548;2023-09-19T04:21:14;1.77;;;1.30;;
9138;SDS011;4604;48.616;9.548;2023-09-19T04:23:41;1.50;;;1.35;;
9138;SDS011;4604;48.616;9.548;2023-09-19T04:26:08;2.63;;;1.10;;
9138;SDS011;4604;48.616;9.548;2023-09-19T04:28:35;2.78;;;1.20;;
9138;SDS011;4604;48.616;9.548;2023-09-19T04:31:03;1.48;;;1.27;;
9138;SDS011;4604;48.616;9.548;2023-09-19T04:33:30;1.35;;;1.08;;
9138;SDS011;4604;48.616;9.548;2023-09-19T04:36:01;1.73;;;1.40;;
9138;SDS011;4604;48.616;9.548;2023-09-19T04:38:32;1.17;;;0.98;;
9138;SDS011;4604;48.616;9.548;2023-09-19T04:40:59;2.05;;;1.20;;
9138;SDS011;4604;48.616;9.548;2023-09-19T04:43:25;1.77;;;1.13;;
9138;SDS011;4604;48.616;9.548;2023-09-19T04:45:53;1.63;;;0.95;;
9138;SDS011;4604;48.616;9.548;2023-09-19T04:48:21;1.27;;;1.05;;
9138;SDS011;4604;48.616;9.548;2023-09-19T04:50:49;1.95;;;1.30;;
9138;SDS011;4604;48.616;9.548;2023-09-19T04:53:17;1.98;;;1.35;;
9138;SDS011;4604;48.616;9.548;2023-09-19T04:55:45;4.25;;;1.42;;
9138;SDS011;4604;48.616;9.548;2023-09-19T04:58:16;1.77;;;1.00;;
9138;SDS011;4604;48.616;9.548;2023-09-19T05:00:42;1.85;;;1.00;;
9138;SDS011;4604;48.616;9.548;2023-09-19T05:03:10;1.65;;;1.50;;
9138;SDS011;4604;48.616;9.548;2023-09-19T05:05:36;0.95;;;0.88;;
9138;SDS011;4604;48.616;9.548;2023-09-19T05:08:04;3.25;;;1.27;;
9138;SDS011;4604;48.616;9.548;2023-09-19T05:10:32;1.15;;;1.00;;
9138;SDS011;4604;48.616;9.548;2023-09-19T05:12:59;0.70;;;0.70;;
9138;SDS011;4604;48.616;9.548;2023-09-19T05:15:26;2.22;;;1.38;;
9138;SDS011;4604;48.616;9.548;2023-09-19T05:17:53;1.20;;;1.10;;
9138;SDS011;4604;48.616;9.548;2023-09-19T05:20:20;1.45;;;0.93;;
9138;SDS011;4604;48.616;9.548;2023-09-19T05:22:57;1.60;;;1.13;;
9138;SDS011;4604;48.616;9.548;2023-09-19T05:25:26;0.82;;;0.82;;
9138;SDS011;4604;48.616;9.548;2023-09-19T05:27:55;2.20;;;1.00;;
9138;SDS011;4604;48.616;9.548;2023-09-19T05:30:23;0.98;;;0.88;;
9138;SDS011;4604;48.616;9.548;2023-09-19T05:32:52;1.13;;;1.02;;
9138;SDS011;4604;48.616;9.548;2023-09-19T05:35:19;1.75;;;1.23;;
9138;SDS011;4604;48.616;9.548;2023-09-19T05:37:46;1.02;;;0.88;;
9138;SDS011;4604;48.616;9.548;2023-09-19T05:40:14;1.23;;;0.85;;
9138;SDS011;4604;48.616;9.548;2023-09-19T05:42:41;3.08;;;0.90;;
9138;SDS011;4604;48.616;9.548;2023-09-19T05:45:10;2.88;;;1.02;;
9138;SDS011;4604;48.616;9.548;2023-09-19T05:47:37;1.17;;;1.08;;
9138;SDS011;4604;48.616;9.548;2023-09-19T05:50:05;2.45;;;0.90;;
9138;SDS011;4604;48.616;9.548;2023-09-19T05:52:33;1.50;;;1.02;;
9138;SDS011;4604;48.616;9.548;2023-09-19T05:54:59;2.75;;;1.10;;
9138;SDS011;4604;48.616;9.548;2023-09-19T05:57:26;2.72;;;1.00;;
9138;SDS011;4604;48.616;9.548;2023-09-19T05:59:54;2.80;;;1.05;;
9138;SDS011;4604;48.616;9.548;2023-09-19T06:02:22;2.35;;;1.20;;
9138;SDS011;4604;48.616;9.548;2023-09-19T06:04:48;1.40;;;1.30;;
9138;SDS011;4604;48.616;9.548;2023-09-19T06:07:15;1.38;;;1.00;;
9138;SDS011;4604;48.616;9.548;2023-09-19T06:09:41;1.52;;;1.30;;
9138;SDS011;4604;48.616;9.548;2023-09-19T06:12:08;1.77;;;1.10;;
9138;SDS011;4604;48.616;9.548;2023-09-19T06:14:38;3.50;;;1.48;;
9138;SDS011;4604;48.616;9.548;2023-09-19T06:17:05;1.75;;;1.38;;
9138;SDS011;4604;48.616;9.548;2023-09-19T06:19:33;7.57;;;1.65;;
9138;SDS011;4604;48.616;9.548;2023-09-19T06:21:59;3.83;;;1.55;;
9138;SDS011;4604;48.616;9.548;2023-09-19T06:24:26;1.50;;;1.40;;
9138;SDS011;4604;48.616;9.548;2023-09-19T06:26:53;3.40;;;1.65;;
9138;SDS011;4604;48.616;9.548;2023-09-19T06:29:20;5.20;;;1.52;;
9138;SDS011;4604;48.616;9.548;2023-09-19T06:31:48;3.22;;;1.70;;
9138;SDS011;4604;48.616;9.548;2023-09-19T06:34:14;2.17;;;1.80;;
9138;SDS011;4604;48.616;9.548;2023-09-19T06:36:44;2.17;;;1.58;;
9138;SDS011;4604;48.616;9.548;2023-09-19T06:39:11;1.33;;;1.23;;
9138;SDS011;4604;48.616;9.548;2023-09-19T06:41:38;4.10;;;1.50;;
9138;SDS011;4604;48.616;9.548;2023-09-19T06:44:06;1.98;;;1.40;;
9138;SDS011;4604;48.616;9.548;2023-09-19T06:46:34;1.67;;;1.33;;
9138;SDS011;4604;48.616;9.548;2023-09-19T06:49:04;3.92;;;1.50;;
9138;SDS011;4604;48.616;9.548;2023-09-19T06:51:31;1.85;;;1.33;;
9138;SDS011;4604;48.616;9.548;2023-09-19T06:54:00;2.00;;;1.10;;
9138;SDS011;4604;48.616;9.548;2023-09-19T06:56:27;1.85;;;1.33;;
9138;SDS011;4604;48.616;9.548;2023-09-19T06:58:54;5.80;;;1.63;;
9138;SDS011;4604;48.616;9.548;2023-09-19T07:01:20;2.78;;;1.60;;
9138;SDS011;4604;48.616;9.548;2023-09-19T07:03:47;1.95;;;1.67;;
9138;SDS011;4604;48.616;9.548;2023-09-19T07:06:13;4.35;;;1.30;;
9138;SDS011;4604;48.616;9.548;2023-09-19T07:08:40;1.58;;;1.35;;
9138;SDS011;4604;48.616;9.548;2023-09-19T07:11:08;5.07;;;1.17;;
9138;SDS011;4604;48.616;9.548;2023-09-19T07:13:35;0.85;;;0.85;;
9138;SDS011;4604;48.616;9.548;2023-09-19T07:16:03;1.63;;;1.52;;
9138;SDS011;4604;48.616;9.548;2023-09-19T07:18:30;1.30;;;1.20;;
9138;SDS011;4604;48.616;9.548;2023-09-19T07:20:57;2.08;;;1.50;;
9138;SDS011;4604;48.616;9.548;2023-09-19T07:23:30;2.05;;;1.30;;
9138;SDS011;4604;48.616;9.548;2023-09-19T07:25:59;1.70;;;1.02;;
9138;SDS011;4604;48.616;9.548;2023-09-19T07:28:28;1.63;;;1.20;;
9138;SDS011;4604;48.616;9.548;2023-09-19T07:30:54;1.73;;;1.25;;
9138;SDS011;4604;48.616;9.548;2023-09-19T07:33:21;2.20;;;1.30;;
9138;SDS011;4604;48.616;9.548;2023-09-19T07:35:50;3.63;;;1.70;;
9138;SDS011;4604;48.616;9.548;2023-09-19T07:38:16;2.28;;;1.42;;
9138;SDS011;4604;48.616;9.548;2023-09-19T07:40:43;5.28;;;1.55;;
9138;SDS011;4604;48.616;9.548;2023-09-19T07:43:10;3.22;;;1.70;;
9138;SDS011;4604;48.616;9.548;2023-09-19T07:45:38;2.58;;;1.55;;
9138;SDS011;4604;48.616;9.548;2023-09-19T07:48:05;2.15;;;1.50;;
9138;SDS011;4604;48.616;9.548;2023-09-19T07:50:38;2.40;;;1.60;;
9138;SDS011;4604;48.616;9.548;2023-09-19T07:53:05;1.70;;;1.50;;
9138;SDS011;4604;48.616;9.548;2023-09-19T07:55:32;1.52;;;1.40;;
9138;SDS011;4604;48.616;9.548;2023-09-19T07:57:59;2.03;;;1.50;;
9138;SDS011;4604;48.616;9.548;2023-09-19T08:00:28;1.85;;;1.60;;
9138;SDS011;4604;48.616;9.548;2023-09-19T08:02:56;2.45;;;1.40;;
9138;SDS011;4604;48.616;9.548;2023-09-19T08:05:23;9.02;;;1.88;;
9138;SDS011;4604;48.616;9.548;2023-09-19T08:07:49;2.58;;;1.58;;
9138;SDS011;4604;48.616;9.548;2023-09-19T08:10:17;1.80;;;1.60;;
9138;SDS011;4604;48.616;9.548;2023-09-19T08:12:44;2.13;;;1.63;;
9138;SDS011;4604;48.616;9.548;2023-09-19T08:15:12;1.60;;;1.50;;
9138;SDS011;4604;48.616;9.548;2023-09-19T08:17:39;1.70;;;1.40;;
9138;SDS011;4604;48.616;9.548;2023-09-19T08:20:08;1.60;;;1.50;;
9138;SDS011;4604;48.616;9.548;2023-09-19T08:22:41;2.35;;;1.40;;
9138;SDS011;4604;48.616;9.548;2023-09-19T08:25:11;2.60;;;1.35;;
9138;SDS011;4604;48.616;9.548;2023-09-19T08:27:38;1.58;;;1.42;;
9138;SDS011;4604;48.616;9.548;2023-09-19T08:30:04;1.52;;;1.40;;
9138;SDS011;4604;48.616;9.548;2023-09-19T08:32:32;2.08;;;1.45;;
9138;SDS011;4604;48.616;9.548;2023-09-19T08:34:58;1.88;;;1.50;;
9138;SDS011;4604;48.616;9.548;2023-09-19T08:37:27;2.03;;;1.38;;
9138;SDS011;4604;48.616;9.548;2023-09-19T08:39:54;2.47;;;1.42;;
9138;SDS011;4604;48.616;9.548;2023-09-19T08:42:20;2.92;;;2.15;;
9138;SDS011;4604;48.616;9.548;2023-09-19T08:44:49;1.60;;;1.50;;
9138;SDS011;4604;48.616;9.548;2023-09-19T08:47:16;1.77;;;1.60;;
9138;SDS011;4604;48.616;9.548;2023-09-19T08:49:57;2.53;;;1.40;;
9138;SDS011;4604;48.616;9.548;2023-09-19T08:52:32;1.40;;;1.30;;
9138;SDS011;4604;48.616;9.548;2023-09-19T08:55:07;2.13;;;1.55;;
9138;SDS011;4604;48.616;9.548;2023-09-19T08:57:37;2.30;;;1.30;;
9138;SDS011;4604;48.616;9.548;2023-09-19T09:00:07;3.42;;;1.33;;
9138;SDS011;4604;48.616;9.548;2023-09-19T09:02:37;1.48;;;1.33;;
9138;SDS011;4604;48.616;9.548;2023-09-19T09:05:05;1.77;;;1.48;;
9138;SDS011;4604;48.616;9.548;2023-09-19T09:07:35;2.95;;;1.38;;
9138;SDS011;4604;48.616;9.548;2023-09-19T09:10:04;2.10;;;1.50;;
9138;SDS011;4604;48.616;9.548;2023-09-19T09:12:31;1.98;;;1.48;;
9138;SDS011;4604;48.616;9.548;2023-09-19T09:14:57;1.50;;;1.20;;
9138;SDS011;4604;48.616;9.548;2023-09-19T09:17:24;2.20;;;1.15;;
9138;SDS011;4604;48.616;9.548;2023-09-19T09:19:51;3.70;;;1.60;;
9138;SDS011;4604;48.616;9.548;2023-09-19T09:22:18;1.67;;;1.38;;
9138;SDS011;4604;48.616;9.548;2023-09-19T09:24:53;1.95;;;1.30;;
9138;SDS011;4604;48.616;9.548;2023-09-19T09:27:23;1.52;;;1.20;;
9138;SDS011;4604;48.616;9.548;2023-09-19T09:29:50;1.20;;;1.10;;
9138;SDS011;4604;48.616;9.548;2023-09-19T09:34:48;2.08;;;1.50;;
9138;SDS011;4604;48.616;9.548;2023-09-19T09:37:17;1.67;;;1.30;;
9138;SDS011;4604;48.616;9.548;2023-09-19T09:39:48;1.73;;;1.60;;
9138;SDS011;4604;48.616;9.548;2023-09-19T09:42:30;1.70;;;1.50;;
9138;SDS011;4604;48.616;9.548;2023-09-19T09:45:12;1.40;;;1.30;;
9138;SDS011;4604;48.616;9.548;2023-09-19T09:47:44;1.67;;;1.20;;
9138;SDS011;4604;48.616;9.548;2023-09-19T09:50:24;3.55;;;1.27;;
9138;SDS011;4604;48.616;9.548;2023-09-19T09:52:54;3.90;;;1.48;;
9138;SDS011;4604;48.616;9.548;2023-09-19T09:55:28;2.60;;;1.60;;
9138;SDS011;4604;48.616;9.548;2023-09-19T10:00:54;2.40;;;1.40;;
9138;SDS011;4604;48.616;9.548;2023-09-19T10:03:30;1.27;;;1.17;;
9138;SDS011;4604;48.616;9.548;2023-09-19T10:05:59;1.65;;;1.50;;
9138;SDS011;4604;48.616;9.548;2023-09-19T10:08:33;2.90;;;1.20;;
9138;SDS011;4604;48.616;9.548;2023-09-19T10:11:01;1.92;;;1.70;;
9138;SDS011;4604;48.616;9.548;2023-09-19T10:13:43;2.17;;;1.52;;
9138;SDS011;4604;48.616;9.548;2023-09-19T10:16:12;1.92;;;1.63;;
9138;SDS011;4604;48.616;9.548;2023-09-19T10:18:43;2.33;;;1.60;;
9138;SDS011;4604;48.616;9.548;2023-09-19T10:21:12;2.33;;;1.65;;
9138;SDS011;4604;48.616;9.548;2023-09-19T10:23:38;1.85;;;1.38;;
9138;SDS011;4604;48.616;9.548;2023-09-19T10:26:10;3.08;;;1.67;;
9138;SDS011;4604;48.616;9.548;2023-09-19T10:28:37;1.88;;;1.50;;
9138;SDS011;4604;48.616;9.548;2023-09-19T10:31:06;2.28;;;1.10;;
9138;SDS011;4604;48.616;9.548;2023-09-19T10:33:35;1.75;;;1.60;;
9138;SDS011;4604;48.616;9.548;2023-09-19T10:36:03;3.35;;;1.70;;
9138;SDS011;4604;48.616;9.548;2023-09-19T10:38:31;2.50;;;1.48;;
9138;SDS011;4604;48.616;9.548;2023-09-19T10:41:01;1.52;;;1.40;;
9138;SDS011;4604;48.616;9.548;2023-09-19T10:43:29;4.53;;;1.58;;
9138;SDS011;4604;48.616;9.548;2023-09-19T10:46:00;2.80;;;1.40;;
9138;SDS011;4604;48.616;9.548;2023-09-19T10:48:30;1.55;;;1.45;;
9138;SDS011;4604;48.616;9.548;2023-09-19T10:50:58;2.05;;;1.40;;
9138;SDS011;4604;48.616;9.548;2023-09-19T10:53:39;1.88;;;1.60;;
9138;SDS011;4604;48.616;9.548;2023-09-19T10:56:09;3.33;;;1.25;;
9138;SDS011;4604;48.616;9.548;2023-09-19T10:58:42;1.60;;;1.40;;
9138;SDS011;4604;48.616;9.548;2023-09-19T11:01:09;3.08;;;1.52;;
9138;SDS011;4604;48.616;9.548;2023-09-19T11:03:39;2.78;;;1.55;;
9138;SDS011;4604;48.616;9.548;2023-09-19T11:06:09;5.13;;;1.45;;
9138;SDS011;4604;48.616;9.548;2023-09-19T11:08:52;1.55;;;1.45;;
9138;SDS011;4604;48.616;9.548;2023-09-19T11:11:47;2.30;;;1.40;;
9138;SDS011;4604;48.616;9.548;2023-09-19T11:14:29;1.42;;;1.33;;
9138;SDS011;4604;48.616;9.548;2023-09-19T11:23:17;2.60;;;1.70;;
9138;SDS011;4604;48.616;9.548;2023-09-19T11:25:48;1.50;;;1.20;;
9138;SDS011;4604;48.616;9.548;2023-09-19T11:28:29;6.95;;;1.55;;
9138;SDS011;4604;48.616;9.548;2023-09-19T11:30:57;3.20;;;1.67;;
9138;SDS011;4604;48.616;9.548;2023-09-19T11:33:24;2.65;;;1.45;;
9138;SDS011;4604;48.616;9.548;2023-09-19T11:35:59;4.05;;;1.40;;
9138;SDS011;4604;48.616;9.548;2023-09-19T11:41:39;7.25;;;1.83;;
9138;SDS011;4604;48.616;9.548;2023-09-19T11:46:59;1.83;;;1.40;;
9138;SDS011;4604;48.616;9.548;2023-09-19T11:49:29;1.67;;;1.48;;
9138;SDS011;4604;48.616;9.548;2023-09-19T11:52:00;1.92;;;1.20;;
9138;SDS011;4604;48.616;9.548;2023-09-19T11:54:30;2.72;;;1.20;;
9138;SDS011;4604;48.616;9.548;2023-09-19T11:56:58;1.63;;;1.45;;
9138;SDS011;4604;48.616;9.548;2023-09-19T11:59:25;2.25;;;1.27;;
9138;SDS011;4604;48.616;9.548;2023-09-19T12:01:53;1.25;;;1.15;;
9138;SDS011;4604;48.616;9.548;2023-09-19T12:04:31;1.67;;;1.35;;
9138;SDS011;4604;48.616;9.548;2023-09-19T12:07:04;2.70;;;1.52;;
9138;SDS011;4604;48.616;9.548;2023-09-19T12:09:35;3.22;;;1.60;;
9138;SDS011;4604;48.616;9.548;2023-09-19T12:12:05;2.78;;;1.30;;
9138;SDS011;4604;48.616;9.548;2023-09-19T12:14:32;1.70;;;1.35;;
9138;SDS011;4604;48.616;9.548;2023-09-19T12:16:58;1.38;;;1.25;;
9138;SDS011;4604;48.616;9.548;2023-09-19T12:19:27;1.42;;;1.30;;
9138;SDS011;4604;48.616;9.548;2023-09-19T12:21:54;2.85;;;1.63;;
9138;SDS011;4604;48.616;9.548;2023-09-19T12:24:24;2.13;;;1.52;;
9138;SDS011;4604;48.616;9.548;2023-09-19T12:26:59;2.30;;;1.10;;
9138;SDS011;4604;48.616;9.548;2023-09-19T12:29:30;1.25;;;1.15;;
9138;SDS011;4604;48.616;9.548;2023-09-19T12:31:57;4.00;;;1.40;;
9138;SDS011;4604;48.616;9.548;2023-09-19T12:34:28;1.67;;;1.58;;
9138;SDS011;4604;48.616;9.548;2023-09-19T12:37:06;3.35;;;1.23;;
9138;SDS011;4604;48.616;9.548;2023-09-19T12:39:39;1.98;;;1.40;;
9138;SDS011;4604;48.616;9.548;2023-09-19T12:42:08;2.55;;;1.13;;
9138;SDS011;4604;48.616;9.548;2023-09-19T12:44:36;1.13;;;1.02;;
9138;SDS011;4604;48.616;9.548;2023-09-19T12:47:14;1.15;;;1.05;;
9138;SDS011;4604;48.616;9.548;2023-09-19T12:52:35;3.90;;;1.30;;
9138;SDS011;4604;48.616;9.548;2023-09-19T12:55:04;4.25;;;1.40;;
9138;SDS011;4604;48.616;9.548;2023-09-19T12:57:32;1.48;;;1.35;;
9138;SDS011;4604;48.616;9.548;2023-09-19T12:59:59;1.67;;;1.10;;
9138;SDS011;4604;48.616;9.548;2023-09-19T13:02:26;1.33;;;1.23;;
9138;SDS011;4604;48.616;9.548;2023-09-19T13:04:53;2.20;;;1.60;;
9138;SDS011;4604;48.616;9.548;2023-09-19T13:07:41;1.75;;;1.30;;
9138;SDS011;4604;48.616;9.548;2023-09-19T13:10:13;1.88;;;1.23;;
9138;SDS011;4604;48.616;9.548;2023-09-19T13:12:42;1.63;;;1.40;;
9138;SDS011;4604;48.616;9.548;2023-09-19T13:15:13;1.20;;;1.10;;
9138;SDS011;4604;48.616;9.548;2023-09-19T13:17:44;1.80;;;1.30;;
9138;SDS011;4604;48.616;9.548;2023-09-19T13:20:20;4.78;;;1.50;;
9138;SDS011;4604;48.616;9.548;2023-09-19T13:22:52;3.50;;;1.33;;
9138;SDS011;4604;48.616;9.548;2023-09-19T13:25:25;1.20;;;1.10;;
9138;SDS011;4604;48.616;9.548;2023-09-19T13:27:55;1.30;;;1.20;;
9138;SDS011;4604;48.616;9.548;2023-09-19T13:30:25;1.33;;;1.10;;
9138;SDS011;4604;48.616;9.548;2023-09-19T13:33:04;2.05;;;1.20;;
9138;SDS011;4604;48.616;9.548;2023-09-19T13:35:31;1.38;;;1.27;;
9138;SDS011;4604;48.616;9.548;2023-09-19T13:37:58;3.63;;;1.27;;
9138;SDS011;4604;48.616;9.548;2023-09-19T13:40:27;1.40;;;1.25;;
9138;SDS011;4604;48.616;9.548;2023-09-19T13:43:00;1.58;;;1.40;;
9138;SDS011;4604;48.616;9.548;2023-09-19T13:45:26;1.20;;;1.10;;
9138;SDS011;4604;48.616;9.548;2023-09-19T13:47:55;1.48;;;1.23;;
9138;SDS011;4604;48.616;9.548;2023-09-19T13:50:22;1.80;;;1.50;;
9138;SDS011;4604;48.616;9.548;2023-09-19T13:52:50;1.58;;;1.33;;
9138;SDS011;4604;48.616;9.548;2023-09-19T13:55:21;1.38;;;1.23;;
9138;SDS011;4604;48.616;9.548;2023-09-19T13:57:49;2.65;;;1.60;;
9138;SDS011;4604;48.616;9.548;2023-09-19T14:00:17;1.50;;;1.15;;
9138;SDS011;4604;48.616;9.548;2023-09-19T14:02:44;1.40;;;1.20;;
9138;SDS011;4604;48.616;9.548;2023-09-19T14:05:11;1.30;;;1.20;;
9138;SDS011;4604;48.616;9.548;2023-09-19T14:07:40;1.30;;;1.13;;
9138;SDS011;4604;48.616;9.548;2023-09-19T14:10:07;3.90;;;1.48;;
9138;SDS011;4604;48.616;9.548;2023-09-19T14:12:35;2.53;;;1.30;;
9138;SDS011;4604;48.616;9.548;2023-09-19T14:15:03;2.42;;;1.20;;
9138;SDS011;4604;48.616;9.548;2023-09-19T14:17:30;1.63;;;1.50;;
9138;SDS011;4604;48.616;9.548;2023-09-19T14:19:57;1.67;;;1.17;;
9138;SDS011;4604;48.616;9.548;2023-09-19T14:22:24;2.45;;;1.30;;
9138;SDS011;4604;48.616;9.548;2023-09-19T14:24:51;2.20;;;1.50;;
9138;SDS011;4604;48.616;9.548;2023-09-19T14:27:18;1.92;;;1.60;;
9138;SDS011;4604;48.616;9.548;2023-09-19T14:29:44;1.60;;;1.50;;
9138;SDS011;4604;48.616;9.548;2023-09-19T14:32:12;3.08;;;1.60;;
9138;SDS011;4604;48.616;9.548;2023-09-19T14:34:39;1.45;;;1.35;;
9138;SDS011;4604;48.616;9.548;2023-09-19T14:37:07;5.43;;;1.65;;
9138;SDS011;4604;48.616;9.548;2023-09-19T14:39:35;1.35;;;1.20;;
9138;SDS011;4604;48.616;9.548;2023-09-19T14:42:03;1.52;;;1.42;;
9138;SDS011;4604;48.616;9.548;2023-09-19T14:44:30;4.90;;;1.52;;
9138;SDS011;4604;48.616;9.548;2023-09-19T14:46:57;2.08;;;1.50;;
9138;SDS011;4604;48.616;9.548;2023-09-19T14:49:25;2.17;;;1.45;;
9138;SDS011;4604;48.616;9.548;2023-09-19T14:51:52;2.05;;;1.42;;
9138;SDS011;4604;48.616;9.548;2023-09-19T14:54:18;1.55;;;1.25;;
9138;SDS011;4604;48.616;9.548;2023-09-19T14:56:45;1.70;;;1.50;;
9138;SDS011;4604;48.616;9.548;2023-09-19T14:59:18;2.53;;;1.52;;
9138;SDS011;4604;48.616;9.548;2023-09-19T15:01:45;2.65;;;1.60;;
9138;SDS011;4604;48.616;9.548;2023-09-19T15:04:12;1.55;;;1.40;;
9138;SDS011;4604;48.616;9.548;2023-09-19T15:06:40;2.15;;;1.58;;
9138;SDS011;4604;48.616;9.548;2023-09-19T15:09:06;2.25;;;1.48;;
9138;SDS011;4604;48.616;9.548;2023-09-19T15:11:34;3.95;;;1.60;;
9138;SDS011;4604;48.616;9.548;2023-09-19T15:14:01;1.63;;;1.27;;
9138;SDS011;4604;48.616;9.548;2023-09-19T15:16:28;1.70;;;1.50;;
9138;SDS011;4604;48.616;9.548;2023-09-19T15:18:54;2.05;;;1.38;;
9138;SDS011;4604;48.616;9.548;2023-09-19T15:21:21;1.77;;;1.48;;
9138;SDS011;4604;48.616;9.548;2023-09-19T15:23:50;2.80;;;1.50;;
9138;SDS011;4604;48.616;9.548;2023-09-19T15:26:18;2.15;;;1.58;;
9138;SDS011;4604;48.616;9.548;2023-09-19T15:28:45;1.85;;;1.50;;
9138;SDS011;4604;48.616;9.548;2023-09-19T15:31:13;2.00;;;1.40;;
9138;SDS011;4604;48.616;9.548;2023-09-19T15:33:40;3.33;;;1.73;;
9138;SDS011;4604;48.616;9.548;2023-09-19T15:36:07;1.50;;;1.30;;
9138;SDS011;4604;48.616;9.548;2023-09-19T15:41:29;4.22;;;1.23;;
9138;SDS011;4604;48.616;9.548;2023-09-19T15:43:57;1.67;;;1.50;;
9138;SDS011;4604;48.616;9.548;2023-09-19T15:46:26;1.27;;;1.17;;
9138;SDS011;4604;48.616;9.548;2023-09-19T15:48:54;1.30;;;1.20;;
9138;SDS011;4604;48.616;9.548;2023-09-19T15:51:21;3.65;;;1.60;;